sensor_id;sensor_type;location;lat;lon;timestamp;pressure;altitude;pressure_sealevel;temperature
20103;BMP180;10210;52.284;9.892;2023-12-04T00:00:41;100786.00;;;3.10
20103;BMP180;10210;52.284;9.892;2023-12-04T00:03:06;100778.00;;;3.10
20103;BMP180;10210;52.284;9.892;2023-12-04T00:05:32;100776.00;;;3.10
20103;BMP180;10210;52.284;9.892;2023-12-04T00:07:58;100774.00;;;3.10
20103;BMP180;10210;52.284;9.892;2023-12-04T00:10:24;100773.00;;;3.10
20103;BMP180;10210;52.284;9.892;2023-12-04T00:12:49;100776.00;;;3.10
20103;BMP180;10210;52.284;9.892;2023-12-04T00:15:17;100767.00;;;3.10
20103;BMP180;10210;52.284;9.892;2023-12-04T00:17:43;100771.00;;;3.20
20103;BMP180;10210;52.284;9.892;2023-12-04T00:20:09;100774.00;;;3.20
20103;BMP180;10210;52.284;9.892;2023-12-04T00:22:38;100767.00;;;3.20
20103;BMP180;10210;52.284;9.892;2023-12-04T00:25:05;100752.00;;;3.20
20103;BMP180;10210;52.284;9.892;2023-12-04T00:27:32;100754.00;;;3.20
20103;BMP180;10210;52.284;9.892;2023-12-04T00:29:57;100751.00;;;3.20
20103;BMP180;10210;52.284;9.892;2023-12-04T00:32:24;100759.00;;;3.20
20103;BMP180;10210;52.284;9.892;2023-12-04T00:34:50;100751.00;;;3.30
20103;BMP180;10210;52.284;9.892;2023-12-04T00:37:15;100738.00;;;3.30
20103;BMP180;10210;52.284;9.892;2023-12-04T00:39:41;100747.00;;;3.30
20103;BMP180;10210;52.284;9.892;2023-12-04T00:42:07;100732.00;;;3.30
20103;BMP180;10210;52.284;9.892;2023-12-04T00:44:32;100705.00;;;3.30
20103;BMP180;10210;52.284;9.892;2023-12-04T00:46:58;100716.00;;;3.30
20103;BMP180;10210;52.284;9.892;2023-12-04T00:49:24;100706.00;;;3.40
20103;BMP180;10210;52.284;9.892;2023-12-04T00:51:50;100703.00;;;3.40
20103;BMP180;10210;52.284;9.892;2023-12-04T00:54:15;100713.00;;;3.40
20103;BMP180;10210;52.284;9.892;2023-12-04T00:56:41;100699.00;;;3.40
20103;BMP180;10210;52.284;9.892;2023-12-04T00:59:10;100692.00;;;3.40
20103;BMP180;10210;52.284;9.892;2023-12-04T01:01:39;100699.00;;;3.40
20103;BMP180;10210;52.284;9.892;2023-12-04T01:04:05;100701.00;;;3.50
20103;BMP180;10210;52.284;9.892;2023-12-04T01:06:30;100691.00;;;3.50
20103;BMP180;10210;52.284;9.892;2023-12-04T01:08:56;100695.00;;;3.50
20103;BMP180;10210;52.284;9.892;2023-12-04T01:11:22;100688.00;;;3.50
20103;BMP180;10210;52.284;9.892;2023-12-04T01:13:49;100677.00;;;3.50
20103;BMP180;10210;52.284;9.892;2023-12-04T01:16:15;100681.00;;;3.50
20103;BMP180;10210;52.284;9.892;2023-12-04T01:18:41;100674.00;;;3.50
20103;BMP180;10210;52.284;9.892;2023-12-04T01:21:08;100676.00;;;3.50
20103;BMP180;10210;52.284;9.892;2023-12-04T01:23:37;100665.00;;;3.50
20103;BMP180;10210;52.284;9.892;2023-12-04T01:26:04;100663.00;;;3.50
20103;BMP180;10210;52.284;9.892;2023-12-04T01:28:30;100666.00;;;3.50
20103;BMP180;10210;52.284;9.892;2023-12-04T01:30:55;100663.00;;;3.50
20103;BMP180;10210;52.284;9.892;2023-12-04T01:33:21;100658.00;;;3.40
20103;BMP180;10210;52.284;9.892;2023-12-04T01:35:47;100651.00;;;3.40
20103;BMP180;10210;52.284;9.892;2023-12-04T01:38:12;100655.00;;;3.40
20103;BMP180;10210;52.284;9.892;2023-12-04T01:40:38;100661.00;;;3.40
20103;BMP180;10210;52.284;9.892;2023-12-04T01:43:04;100645.00;;;3.40
20103;BMP180;10210;52.284;9.892;2023-12-04T01:45:31;100640.00;;;3.40
20103;BMP180;10210;52.284;9.892;2023-12-04T01:47:58;100648.00;;;3.40
20103;BMP180;10210;52.284;9.892;2023-12-04T01:50:24;100642.00;;;3.40
20103;BMP180;10210;52.284;9.892;2023-12-04T01:52:51;100636.00;;;3.40
20103;BMP180;10210;52.284;9.892;2023-12-04T01:55:18;100624.00;;;3.40
20103;BMP180;10210;52.284;9.892;2023-12-04T01:57:44;100621.00;;;3.40
20103;BMP180;10210;52.284;9.892;2023-12-04T02:00:10;100627.00;;;3.40
20103;BMP180;10210;52.284;9.892;2023-12-04T02:02:39;100609.00;;;3.40
20103;BMP180;10210;52.284;9.892;2023-12-04T02:05:08;100621.00;;;3.40
20103;BMP180;10210;52.284;9.892;2023-12-04T02:07:34;100612.00;;;3.40
20103;BMP180;10210;52.284;9.892;2023-12-04T02:10:03;100616.00;;;3.30
20103;BMP180;10210;52.284;9.892;2023-12-04T02:12:30;100607.00;;;3.30
20103;BMP180;10210;52.284;9.892;2023-12-04T02:14:56;100597.00;;;3.30
20103;BMP180;10210;52.284;9.892;2023-12-04T02:17:22;100595.00;;;3.30
20103;BMP180;10210;52.284;9.892;2023-12-04T02:19:48;100599.00;;;3.30
20103;BMP180;10210;52.284;9.892;2023-12-04T02:22:14;100592.00;;;3.30
20103;BMP180;10210;52.284;9.892;2023-12-04T02:24:40;100583.00;;;3.30
20103;BMP180;10210;52.284;9.892;2023-12-04T02:27:17;100573.00;;;3.30
20103;BMP180;10210;52.284;9.892;2023-12-04T02:30:05;100576.00;;;3.30
20103;BMP180;10210;52.284;9.892;2023-12-04T02:32:36;100571.00;;;3.40
20103;BMP180;10210;52.284;9.892;2023-12-04T02:35:06;100576.00;;;3.40
20103;BMP180;10210;52.284;9.892;2023-12-04T02:37:33;100566.00;;;3.50
20103;BMP180;10210;52.284;9.892;2023-12-04T02:39:59;100572.00;;;3.50
20103;BMP180;10210;52.284;9.892;2023-12-04T02:42:25;100568.00;;;3.60
20103;BMP180;10210;52.284;9.892;2023-12-04T02:44:52;100574.00;;;3.60
20103;BMP180;10210;52.284;9.892;2023-12-04T02:47:18;100568.00;;;3.60
20103;BMP180;10210;52.284;9.892;2023-12-04T02:49:44;100566.00;;;3.60
20103;BMP180;10210;52.284;9.892;2023-12-04T02:52:10;100562.00;;;3.60
20103;BMP180;10210;52.284;9.892;2023-12-04T02:54:36;100551.00;;;3.60
20103;BMP180;10210;52.284;9.892;2023-12-04T02:57:02;100543.00;;;3.60
20103;BMP180;10210;52.284;9.892;2023-12-04T02:59:27;100532.00;;;3.60
20103;BMP180;10210;52.284;9.892;2023-12-04T03:01:53;100521.00;;;3.50
20103;BMP180;10210;52.284;9.892;2023-12-04T03:04:22;100524.00;;;3.50
20103;BMP180;10210;52.284;9.892;2023-12-04T03:06:47;100518.00;;;3.50
20103;BMP180;10210;52.284;9.892;2023-12-04T03:09:14;100509.00;;;3.50
20103;BMP180;10210;52.284;9.892;2023-12-04T03:11:40;100513.00;;;3.50
20103;BMP180;10210;52.284;9.892;2023-12-04T03:14:06;100516.00;;;3.60
20103;BMP180;10210;52.284;9.892;2023-12-04T03:16:33;100514.00;;;3.60
20103;BMP180;10210;52.284;9.892;2023-12-04T03:18:59;100513.00;;;3.60
20103;BMP180;10210;52.284;9.892;2023-12-04T03:21:24;100511.00;;;3.60
20103;BMP180;10210;52.284;9.892;2023-12-04T03:23:50;100510.00;;;3.60
20103;BMP180;10210;52.284;9.892;2023-12-04T03:26:16;100510.00;;;3.60
20103;BMP180;10210;52.284;9.892;2023-12-04T03:28:42;100508.00;;;3.60
20103;BMP180;10210;52.284;9.892;2023-12-04T03:31:08;100515.00;;;3.70
20103;BMP180;10210;52.284;9.892;2023-12-04T03:33:34;100514.00;;;3.70
20103;BMP180;10210;52.284;9.892;2023-12-04T03:35:59;100516.00;;;3.70
20103;BMP180;10210;52.284;9.892;2023-12-04T03:38:25;100501.00;;;3.80
20103;BMP180;10210;52.284;9.892;2023-12-04T03:40:51;100503.00;;;3.80
20103;BMP180;10210;52.284;9.892;2023-12-04T03:43:16;100493.00;;;3.70
20103;BMP180;10210;52.284;9.892;2023-12-04T03:45:42;100494.00;;;3.70
20103;BMP180;10210;52.284;9.892;2023-12-04T03:48:08;100496.00;;;3.80
20103;BMP180;10210;52.284;9.892;2023-12-04T03:50:34;100493.00;;;3.70
20103;BMP180;10210;52.284;9.892;2023-12-04T03:52:59;100479.00;;;3.80
20103;BMP180;10210;52.284;9.892;2023-12-04T03:55:25;100477.00;;;3.80
20103;BMP180;10210;52.284;9.892;2023-12-04T03:57:52;100476.00;;;3.80
20103;BMP180;10210;52.284;9.892;2023-12-04T04:00:18;100475.00;;;3.80
20103;BMP180;10210;52.284;9.892;2023-12-04T04:02:45;100463.00;;;3.80
20103;BMP180;10210;52.284;9.892;2023-12-04T04:05:11;100468.00;;;3.80
20103;BMP180;10210;52.284;9.892;2023-12-04T04:07:36;100458.00;;;3.80
20103;BMP180;10210;52.284;9.892;2023-12-04T04:10:02;100458.00;;;3.80
20103;BMP180;10210;52.284;9.892;2023-12-04T04:12:30;100464.00;;;3.80
20103;BMP180;10210;52.284;9.892;2023-12-04T04:14:56;100448.00;;;3.80
20103;BMP180;10210;52.284;9.892;2023-12-04T04:17:22;100447.00;;;3.80
20103;BMP180;10210;52.284;9.892;2023-12-04T04:19:51;100438.00;;;3.80
20103;BMP180;10210;52.284;9.892;2023-12-04T04:22:16;100413.00;;;3.80
20103;BMP180;10210;52.284;9.892;2023-12-04T04:24:42;100416.00;;;3.80
20103;BMP180;10210;52.284;9.892;2023-12-04T04:27:07;100417.00;;;3.70
20103;BMP180;10210;52.284;9.892;2023-12-04T04:29:33;100422.00;;;3.80
20103;BMP180;10210;52.284;9.892;2023-12-04T04:31:59;100427.00;;;3.80
20103;BMP180;10210;52.284;9.892;2023-12-04T04:34:24;100424.00;;;3.80
20103;BMP180;10210;52.284;9.892;2023-12-04T04:36:50;100425.00;;;3.80
20103;BMP180;10210;52.284;9.892;2023-12-04T04:39:15;100408.00;;;3.80
20103;BMP180;10210;52.284;9.892;2023-12-04T04:41:41;100406.00;;;3.80
20103;BMP180;10210;52.284;9.892;2023-12-04T04:44:07;100411.00;;;3.90
20103;BMP180;10210;52.284;9.892;2023-12-04T04:46:32;100413.00;;;3.90
20103;BMP180;10210;52.284;9.892;2023-12-04T04:48:58;100407.00;;;3.90
20103;BMP180;10210;52.284;9.892;2023-12-04T04:51:23;100408.00;;;3.90
20103;BMP180;10210;52.284;9.892;2023-12-04T04:53:49;100412.00;;;3.90
20103;BMP180;10210;52.284;9.892;2023-12-04T04:56:15;100403.00;;;3.90
20103;BMP180;10210;52.284;9.892;2023-12-04T04:58:41;100409.00;;;3.90
20103;BMP180;10210;52.284;9.892;2023-12-04T05:01:08;100394.00;;;3.90
20103;BMP180;10210;52.284;9.892;2023-12-04T05:03:34;100377.00;;;4.00
20103;BMP180;10210;52.284;9.892;2023-12-04T05:05:59;100389.00;;;4.00
20103;BMP180;10210;52.284;9.892;2023-12-04T05:08:25;100386.00;;;4.00
20103;BMP180;10210;52.284;9.892;2023-12-04T05:10:51;100388.00;;;4.00
20103;BMP180;10210;52.284;9.892;2023-12-04T05:13:17;100395.00;;;4.00
20103;BMP180;10210;52.284;9.892;2023-12-04T05:15:43;100395.00;;;4.00
20103;BMP180;10210;52.284;9.892;2023-12-04T05:18:08;100396.00;;;4.00
20103;BMP180;10210;52.284;9.892;2023-12-04T05:20:34;100388.00;;;4.00
20103;BMP180;10210;52.284;9.892;2023-12-04T05:23:00;100401.00;;;4.00
20103;BMP180;10210;52.284;9.892;2023-12-04T05:25:26;100386.00;;;4.00
20103;BMP180;10210;52.284;9.892;2023-12-04T05:27:52;100386.00;;;4.00
20103;BMP180;10210;52.284;9.892;2023-12-04T05:30:17;100377.00;;;4.00
20103;BMP180;10210;52.284;9.892;2023-12-04T05:32:43;100383.00;;;4.00
20103;BMP180;10210;52.284;9.892;2023-12-04T05:35:09;100369.00;;;4.00
20103;BMP180;10210;52.284;9.892;2023-12-04T05:37:34;100368.00;;;4.00
20103;BMP180;10210;52.284;9.892;2023-12-04T05:40:00;100368.00;;;4.00
20103;BMP180;10210;52.284;9.892;2023-12-04T05:42:26;100359.00;;;4.00
20103;BMP180;10210;52.284;9.892;2023-12-04T05:44:52;100365.00;;;4.00
20103;BMP180;10210;52.284;9.892;2023-12-04T05:47:21;100353.00;;;4.00
20103;BMP180;10210;52.284;9.892;2023-12-04T05:49:46;100360.00;;;4.00
20103;BMP180;10210;52.284;9.892;2023-12-04T05:52:12;100357.00;;;4.00
20103;BMP180;10210;52.284;9.892;2023-12-04T05:54:39;100357.00;;;4.00
20103;BMP180;10210;52.284;9.892;2023-12-04T05:57:05;100367.00;;;4.00
20103;BMP180;10210;52.284;9.892;2023-12-04T05:59:30;100365.00;;;4.10
20103;BMP180;10210;52.284;9.892;2023-12-04T06:01:56;100359.00;;;4.10
20103;BMP180;10210;52.284;9.892;2023-12-04T06:04:22;100361.00;;;4.10
20103;BMP180;10210;52.284;9.892;2023-12-04T06:06:47;100355.00;;;4.10
20103;BMP180;10210;52.284;9.892;2023-12-04T06:09:14;100354.00;;;4.00
20103;BMP180;10210;52.284;9.892;2023-12-04T06:11:42;100343.00;;;4.10
20103;BMP180;10210;52.284;9.892;2023-12-04T06:14:08;100351.00;;;4.10
20103;BMP180;10210;52.284;9.892;2023-12-04T06:16:34;100341.00;;;4.10
20103;BMP180;10210;52.284;9.892;2023-12-04T06:18:59;100336.00;;;4.10
20103;BMP180;10210;52.284;9.892;2023-12-04T06:21:25;100344.00;;;4.10
20103;BMP180;10210;52.284;9.892;2023-12-04T06:23:51;100335.00;;;4.10
20103;BMP180;10210;52.284;9.892;2023-12-04T06:26:17;100344.00;;;4.10
20103;BMP180;10210;52.284;9.892;2023-12-04T06:28:44;100339.00;;;4.10
20103;BMP180;10210;52.284;9.892;2023-12-04T06:31:11;100341.00;;;4.10
20103;BMP180;10210;52.284;9.892;2023-12-04T06:33:37;100341.00;;;4.10
20103;BMP180;10210;52.284;9.892;2023-12-04T06:36:04;100336.00;;;4.10
20103;BMP180;10210;52.284;9.892;2023-12-04T06:38:32;100342.00;;;4.10
20103;BMP180;10210;52.284;9.892;2023-12-04T06:41:01;100333.00;;;4.00
20103;BMP180;10210;52.284;9.892;2023-12-04T06:43:27;100342.00;;;4.10
20103;BMP180;10210;52.284;9.892;2023-12-04T06:45:53;100335.00;;;4.00
20103;BMP180;10210;52.284;9.892;2023-12-04T06:48:22;100332.00;;;4.10
20103;BMP180;10210;52.284;9.892;2023-12-04T06:50:48;100335.00;;;4.10
20103;BMP180;10210;52.284;9.892;2023-12-04T06:53:14;100330.00;;;4.10
20103;BMP180;10210;52.284;9.892;2023-12-04T06:55:40;100339.00;;;4.10
20103;BMP180;10210;52.284;9.892;2023-12-04T06:58:05;100335.00;;;4.10
20103;BMP180;10210;52.284;9.892;2023-12-04T07:00:31;100336.00;;;4.10
20103;BMP180;10210;52.284;9.892;2023-12-04T07:02:57;100334.00;;;4.10
20103;BMP180;10210;52.284;9.892;2023-12-04T07:05:22;100332.00;;;4.00
20103;BMP180;10210;52.284;9.892;2023-12-04T07:07:48;100350.00;;;4.10
20103;BMP180;10210;52.284;9.892;2023-12-04T07:10:14;100332.00;;;4.10
20103;BMP180;10210;52.284;9.892;2023-12-04T07:12:41;100349.00;;;4.70
20103;BMP180;10210;52.284;9.892;2023-12-04T07:15:09;100335.00;;;4.40
20103;BMP180;10210;52.284;9.892;2023-12-04T07:17:36;100338.00;;;4.30
20103;BMP180;10210;52.284;9.892;2023-12-04T07:20:02;100341.00;;;4.30
20103;BMP180;10210;52.284;9.892;2023-12-04T07:22:27;100345.00;;;4.30
20103;BMP180;10210;52.284;9.892;2023-12-04T07:24:53;100333.00;;;4.20
20103;BMP180;10210;52.284;9.892;2023-12-04T07:27:19;100337.00;;;4.20
20103;BMP180;10210;52.284;9.892;2023-12-04T07:29:44;100340.00;;;4.20
20103;BMP180;10210;52.284;9.892;2023-12-04T07:32:10;100350.00;;;4.20
20103;BMP180;10210;52.284;9.892;2023-12-04T07:34:36;100342.00;;;4.20
20103;BMP180;10210;52.284;9.892;2023-12-04T07:37:02;100345.00;;;4.20
20103;BMP180;10210;52.284;9.892;2023-12-04T07:39:28;100342.00;;;4.10
20103;BMP180;10210;52.284;9.892;2023-12-04T07:41:53;100345.00;;;4.10
20103;BMP180;10210;52.284;9.892;2023-12-04T07:44:19;100345.00;;;4.10
20103;BMP180;10210;52.284;9.892;2023-12-04T07:46:45;100350.00;;;4.10
20103;BMP180;10210;52.284;9.892;2023-12-04T07:49:12;100342.00;;;4.10
20103;BMP180;10210;52.284;9.892;2023-12-04T07:51:37;100349.00;;;4.10
20103;BMP180;10210;52.284;9.892;2023-12-04T07:54:04;100334.00;;;4.10
20103;BMP180;10210;52.284;9.892;2023-12-04T07:56:30;100347.00;;;4.20
20103;BMP180;10210;52.284;9.892;2023-12-04T07:58:55;100335.00;;;4.20
20103;BMP180;10210;52.284;9.892;2023-12-04T08:01:23;100335.00;;;4.20
20103;BMP180;10210;52.284;9.892;2023-12-04T08:03:48;100338.00;;;4.20
20103;BMP180;10210;52.284;9.892;2023-12-04T08:06:14;100334.00;;;4.20
20103;BMP180;10210;52.284;9.892;2023-12-04T08:08:41;100339.00;;;4.20
20103;BMP180;10210;52.284;9.892;2023-12-04T08:11:10;100334.00;;;4.20
20103;BMP180;10210;52.284;9.892;2023-12-04T08:13:36;100334.00;;;4.20
20103;BMP180;10210;52.284;9.892;2023-12-04T08:16:03;100337.00;;;4.20
20103;BMP180;10210;52.284;9.892;2023-12-04T08:18:28;100332.00;;;4.20
20103;BMP180;10210;52.284;9.892;2023-12-04T08:20:54;100333.00;;;4.20
20103;BMP180;10210;52.284;9.892;2023-12-04T08:23:19;100335.00;;;4.30
20103;BMP180;10210;52.284;9.892;2023-12-04T08:25:45;100337.00;;;4.30
20103;BMP180;10210;52.284;9.892;2023-12-04T08:28:11;100337.00;;;4.30
20103;BMP180;10210;52.284;9.892;2023-12-04T08:30:38;100336.00;;;4.30
20103;BMP180;10210;52.284;9.892;2023-12-04T08:33:03;100325.00;;;4.30
20103;BMP180;10210;52.284;9.892;2023-12-04T08:35:29;100310.00;;;4.20
20103;BMP180;10210;52.284;9.892;2023-12-04T08:37:55;100315.00;;;4.20
20103;BMP180;10210;52.284;9.892;2023-12-04T08:40:21;100314.00;;;4.20
20103;BMP180;10210;52.284;9.892;2023-12-04T08:42:47;100317.00;;;4.20
20103;BMP180;10210;52.284;9.892;2023-12-04T08:45:12;100305.00;;;4.20
20103;BMP180;10210;52.284;9.892;2023-12-04T08:47:38;100299.00;;;4.20
20103;BMP180;10210;52.284;9.892;2023-12-04T08:50:05;100301.00;;;4.20
20103;BMP180;10210;52.284;9.892;2023-12-04T08:52:30;100290.00;;;4.20
20103;BMP180;10210;52.284;9.892;2023-12-04T08:54:56;100295.00;;;4.20
20103;BMP180;10210;52.284;9.892;2023-12-04T08:57:22;100298.00;;;4.30
20103;BMP180;10210;52.284;9.892;2023-12-04T08:59:47;100295.00;;;4.30
20103;BMP180;10210;52.284;9.892;2023-12-04T09:02:13;100288.00;;;4.30
20103;BMP180;10210;52.284;9.892;2023-12-04T09:04:39;100282.00;;;4.30
20103;BMP180;10210;52.284;9.892;2023-12-04T09:07:05;100285.00;;;4.40
20103;BMP180;10210;52.284;9.892;2023-12-04T09:09:31;100285.00;;;4.30
20103;BMP180;10210;52.284;9.892;2023-12-04T09:11:58;100272.00;;;4.40
20103;BMP180;10210;52.284;9.892;2023-12-04T09:14:23;100281.00;;;4.40
20103;BMP180;10210;52.284;9.892;2023-12-04T09:16:49;100271.00;;;4.40
20103;BMP180;10210;52.284;9.892;2023-12-04T09:19:14;100278.00;;;4.40
20103;BMP180;10210;52.284;9.892;2023-12-04T09:21:40;100270.00;;;4.40
20103;BMP180;10210;52.284;9.892;2023-12-04T09:24:06;100280.00;;;4.50
20103;BMP180;10210;52.284;9.892;2023-12-04T09:26:31;100272.00;;;4.50
20103;BMP180;10210;52.284;9.892;2023-12-04T09:28:57;100270.00;;;4.50
20103;BMP180;10210;52.284;9.892;2023-12-04T09:31:23;100274.00;;;4.50
20103;BMP180;10210;52.284;9.892;2023-12-04T09:33:48;100265.00;;;4.50
20103;BMP180;10210;52.284;9.892;2023-12-04T09:36:14;100272.00;;;4.50
20103;BMP180;10210;52.284;9.892;2023-12-04T09:38:40;100270.00;;;4.50
20103;BMP180;10210;52.284;9.892;2023-12-04T09:41:08;100264.00;;;4.50
20103;BMP180;10210;52.284;9.892;2023-12-04T09:43:35;100264.00;;;4.50
20103;BMP180;10210;52.284;9.892;2023-12-04T09:46:01;100273.00;;;4.60
20103;BMP180;10210;52.284;9.892;2023-12-04T09:48:28;100264.00;;;4.60
20103;BMP180;10210;52.284;9.892;2023-12-04T09:50:57;100262.00;;;4.60
20103;BMP180;10210;52.284;9.892;2023-12-04T09:53:24;100256.00;;;4.70
20103;BMP180;10210;52.284;9.892;2023-12-04T09:55:53;100258.00;;;4.70
20103;BMP180;10210;52.284;9.892;2023-12-04T09:58:27;100249.00;;;4.80
20103;BMP180;10210;52.284;9.892;2023-12-04T10:00:54;100248.00;;;4.80
20103;BMP180;10210;52.284;9.892;2023-12-04T10:03:20;100233.00;;;4.80
20103;BMP180;10210;52.284;9.892;2023-12-04T10:05:47;100236.00;;;4.80
20103;BMP180;10210;52.284;9.892;2023-12-04T10:08:14;100235.00;;;4.90
20103;BMP180;10210;52.284;9.892;2023-12-04T10:10:40;100234.00;;;5.00
20103;BMP180;10210;52.284;9.892;2023-12-04T10:13:05;100239.00;;;5.00
20103;BMP180;10210;52.284;9.892;2023-12-04T10:15:32;100227.00;;;5.00
20103;BMP180;10210;52.284;9.892;2023-12-04T10:17:58;100231.00;;;5.10
20103;BMP180;10210;52.284;9.892;2023-12-04T10:20:23;100224.00;;;5.10
20103;BMP180;10210;52.284;9.892;2023-12-04T10:25:25;100216.00;;;5.10
20103;BMP180;10210;52.284;9.892;2023-12-04T10:27:53;100209.00;;;5.20
20103;BMP180;10210;52.284;9.892;2023-12-04T10:30:27;100212.00;;;5.20
20103;BMP180;10210;52.284;9.892;2023-12-04T10:32:59;100212.00;;;5.20
20103;BMP180;10210;52.284;9.892;2023-12-04T10:35:28;100213.00;;;5.20
20103;BMP180;10210;52.284;9.892;2023-12-04T10:37:56;100214.00;;;5.20
20103;BMP180;10210;52.284;9.892;2023-12-04T10:40:27;100198.00;;;5.20
20103;BMP180;10210;52.284;9.892;2023-12-04T10:43:14;100206.00;;;5.20
20103;BMP180;10210;52.284;9.892;2023-12-04T10:45:41;100187.00;;;5.20
20103;BMP180;10210;52.284;9.892;2023-12-04T10:48:09;100187.00;;;5.30
20103;BMP180;10210;52.284;9.892;2023-12-04T10:50:41;100180.00;;;5.30
20103;BMP180;10210;52.284;9.892;2023-12-04T10:53:10;100180.00;;;5.30
20103;BMP180;10210;52.284;9.892;2023-12-04T10:55:37;100175.00;;;5.30
20103;BMP180;10210;52.284;9.892;2023-12-04T10:58:10;100178.00;;;5.30
20103;BMP180;10210;52.284;9.892;2023-12-04T11:00:46;100176.00;;;5.30
20103;BMP180;10210;52.284;9.892;2023-12-04T11:03:31;100171.00;;;5.30
20103;BMP180;10210;52.284;9.892;2023-12-04T11:06:04;100170.00;;;5.30
20103;BMP180;10210;52.284;9.892;2023-12-04T11:08:36;100158.00;;;5.30
20103;BMP180;10210;52.284;9.892;2023-12-04T11:11:08;100160.00;;;5.30
20103;BMP180;10210;52.284;9.892;2023-12-04T11:13:42;100152.00;;;5.30
20103;BMP180;10210;52.284;9.892;2023-12-04T11:16:42;100152.00;;;5.30
20103;BMP180;10210;52.284;9.892;2023-12-04T11:19:23;100150.00;;;5.30
20103;BMP180;10210;52.284;9.892;2023-12-04T11:21:53;100142.00;;;5.20
20103;BMP180;10210;52.284;9.892;2023-12-04T11:24:23;100147.00;;;5.20
20103;BMP180;10210;52.284;9.892;2023-12-04T11:26:49;100141.00;;;5.20
20103;BMP180;10210;52.284;9.892;2023-12-04T11:29:16;100147.00;;;5.20
20103;BMP180;10210;52.284;9.892;2023-12-04T11:31:42;100128.00;;;5.20
20103;BMP180;10210;52.284;9.892;2023-12-04T11:34:12;100130.00;;;5.20
20103;BMP180;10210;52.284;9.892;2023-12-04T11:36:38;100126.00;;;5.20
20103;BMP180;10210;52.284;9.892;2023-12-04T11:39:09;100121.00;;;5.20
20103;BMP180;10210;52.284;9.892;2023-12-04T11:41:40;100124.00;;;5.20
20103;BMP180;10210;52.284;9.892;2023-12-04T11:44:13;100123.00;;;5.20
20103;BMP180;10210;52.284;9.892;2023-12-04T11:47:04;100118.00;;;5.20
20103;BMP180;10210;52.284;9.892;2023-12-04T11:49:31;100102.00;;;5.20
20103;BMP180;10210;52.284;9.892;2023-12-04T11:52:03;100111.00;;;5.20
20103;BMP180;10210;52.284;9.892;2023-12-04T11:54:58;100105.00;;;5.20
20103;BMP180;10210;52.284;9.892;2023-12-04T11:57:25;100100.00;;;5.20
20103;BMP180;10210;52.284;9.892;2023-12-04T11:59:52;100103.00;;;5.20
20103;BMP180;10210;52.284;9.892;2023-12-04T12:02:30;100094.00;;;5.30
20103;BMP180;10210;52.284;9.892;2023-12-04T12:04:55;100089.00;;;5.30
20103;BMP180;10210;52.284;9.892;2023-12-04T12:07:22;100093.00;;;5.30
20103;BMP180;10210;52.284;9.892;2023-12-04T12:09:48;100085.00;;;5.30
20103;BMP180;10210;52.284;9.892;2023-12-04T12:12:15;100097.00;;;5.30
20103;BMP180;10210;52.284;9.892;2023-12-04T12:14:41;100075.00;;;5.30
20103;BMP180;10210;52.284;9.892;2023-12-04T12:17:06;100086.00;;;5.30
20103;BMP180;10210;52.284;9.892;2023-12-04T12:19:32;100080.00;;;5.30
20103;BMP180;10210;52.284;9.892;2023-12-04T12:21:58;100079.00;;;5.30
20103;BMP180;10210;52.284;9.892;2023-12-04T12:24:24;100075.00;;;5.30
20103;BMP180;10210;52.284;9.892;2023-12-04T12:26:52;100064.00;;;5.70
20103;BMP180;10210;52.284;9.892;2023-12-04T12:29:19;100070.00;;;5.60
20103;BMP180;10210;52.284;9.892;2023-12-04T12:31:44;100061.00;;;5.50
20103;BMP180;10210;52.284;9.892;2023-12-04T12:34:12;100052.00;;;5.50
20103;BMP180;10210;52.284;9.892;2023-12-04T12:36:37;100052.00;;;5.50
20103;BMP180;10210;52.284;9.892;2023-12-04T12:39:03;100045.00;;;5.50
20103;BMP180;10210;52.284;9.892;2023-12-04T12:41:30;100048.00;;;5.50
20103;BMP180;10210;52.284;9.892;2023-12-04T12:43:56;100041.00;;;5.50
20103;BMP180;10210;52.284;9.892;2023-12-04T12:46:22;100033.00;;;5.50
20103;BMP180;10210;52.284;9.892;2023-12-04T12:48:48;100027.00;;;5.50
20103;BMP180;10210;52.284;9.892;2023-12-04T12:51:15;100021.00;;;5.50
20103;BMP180;10210;52.284;9.892;2023-12-04T12:53:43;100024.00;;;5.50
20103;BMP180;10210;52.284;9.892;2023-12-04T12:56:10;100021.00;;;5.50
20103;BMP180;10210;52.284;9.892;2023-12-04T12:58:35;100018.00;;;5.50
20103;BMP180;10210;52.284;9.892;2023-12-04T13:01:01;100008.00;;;5.50
20103;BMP180;10210;52.284;9.892;2023-12-04T13:03:28;100007.00;;;5.50
20103;BMP180;10210;52.284;9.892;2023-12-04T13:05:55;100004.00;;;5.50
20103;BMP180;10210;52.284;9.892;2023-12-04T13:08:21;100005.00;;;5.50
20103;BMP180;10210;52.284;9.892;2023-12-04T13:10:46;100000.00;;;5.50
20103;BMP180;10210;52.284;9.892;2023-12-04T13:13:15;100002.00;;;5.50
20103;BMP180;10210;52.284;9.892;2023-12-04T13:15:41;99998.00;;;5.50
20103;BMP180;10210;52.284;9.892;2023-12-04T13:18:08;99998.00;;;5.50
20103;BMP180;10210;52.284;9.892;2023-12-04T13:20:34;99997.00;;;5.50
20103;BMP180;10210;52.284;9.892;2023-12-04T13:23:00;99988.00;;;5.50
20103;BMP180;10210;52.284;9.892;2023-12-04T13:25:26;99992.00;;;5.50
20103;BMP180;10210;52.284;9.892;2023-12-04T13:27:53;99984.00;;;5.50
20103;BMP180;10210;52.284;9.892;2023-12-04T13:30:19;99993.00;;;5.50
20103;BMP180;10210;52.284;9.892;2023-12-04T13:32:45;99983.00;;;5.50
20103;BMP180;10210;52.284;9.892;2023-12-04T13:35:11;99985.00;;;5.50
20103;BMP180;10210;52.284;9.892;2023-12-04T13:37:37;99975.00;;;5.50
20103;BMP180;10210;52.284;9.892;2023-12-04T13:40:05;99972.00;;;5.50
20103;BMP180;10210;52.284;9.892;2023-12-04T13:42:38;99964.00;;;5.50
20103;BMP180;10210;52.284;9.892;2023-12-04T13:45:23;99963.00;;;5.50
20103;BMP180;10210;52.284;9.892;2023-12-04T13:47:49;99953.00;;;5.50
20103;BMP180;10210;52.284;9.892;2023-12-04T13:50:17;99956.00;;;5.50
20103;BMP180;10210;52.284;9.892;2023-12-04T13:52:43;99958.00;;;5.50
20103;BMP180;10210;52.284;9.892;2023-12-04T13:55:09;99950.00;;;5.50
20103;BMP180;10210;52.284;9.892;2023-12-04T13:57:46;99956.00;;;5.50
20103;BMP180;10210;52.284;9.892;2023-12-04T14:00:25;99949.00;;;5.50
20103;BMP180;10210;52.284;9.892;2023-12-04T14:02:51;99943.00;;;5.50
20103;BMP180;10210;52.284;9.892;2023-12-04T14:05:36;99944.00;;;5.60
20103;BMP180;10210;52.284;9.892;2023-12-04T14:08:01;99939.00;;;5.60
20103;BMP180;10210;52.284;9.892;2023-12-04T14:10:29;99937.00;;;5.60